createdAt,value
2023-04-29T00:01:11.638Z,64.93
2023-04-29T00:06:16.276Z,64.89
2023-04-29T00:11:19.918Z,64.96
2023-04-29T00:16:23.675Z,64.49
2023-04-29T00:21:27.767Z,64.32
2023-04-29T00:26:32.250Z,63.77
2023-04-29T00:31:37.634Z,63.30
2023-04-29T00:36:42.005Z,63.95
2023-04-29T00:41:45.561Z,64.55
2023-04-29T00:46:49.518Z,63.72
2023-04-29T00:51:54.913Z,63.50
2023-04-29T00:57:01.858Z,64.38
2023-04-29T01:02:05.909Z,64.63
2023-04-29T01:07:17.223Z,64.94
2023-04-29T01:12:27.260Z,66.21
2023-04-29T01:17:40.364Z,66.65
2023-04-29T01:22:44.629Z,66.96
2023-04-29T01:28:15.731Z,67.56
2023-04-29T01:34:11.278Z,68.00
2023-04-29T01:39:33.425Z,68.55
2023-04-29T01:44:48.137Z,68.96
2023-04-29T01:49:53.375Z,69.28
2023-04-29T01:54:57.927Z,69.51
2023-04-29T02:00:07.110Z,69.49
2023-04-29T02:05:16.045Z,69.13
2023-04-29T02:10:28.487Z,69.60
2023-04-29T02:15:43.969Z,70.29
2023-04-29T02:20:48.002Z,69.95
2023-04-29T02:25:52.385Z,70.79
2023-04-29T02:30:55.972Z,70.89
2023-04-29T02:35:59.972Z,70.63
2023-04-29T02:41:03.618Z,71.04
2023-04-29T02:46:06.656Z,71.35
2023-04-29T02:51:10.390Z,71.32
2023-04-29T02:56:14.529Z,71.47
2023-04-29T03:01:18.194Z,71.63
2023-04-29T03:06:21.667Z,71.70
2023-04-29T03:11:27.125Z,72.18
2023-04-29T03:16:31.970Z,71.54
2023-04-29T03:21:35.761Z,71.95
2023-04-29T03:26:39.696Z,72.09
2023-04-29T03:31:43.801Z,72.71
2023-04-29T03:36:47.796Z,73.04
2023-04-29T03:41:51.919Z,73.91
2023-04-29T03:46:55.698Z,74.85
2023-04-29T03:52:00.814Z,75.67
2023-04-29T03:57:04.905Z,76.29
2023-04-29T04:02:08.796Z,77.33
2023-04-29T04:07:13.053Z,77.56
2023-04-29T04:12:36.103Z,78.54
2023-04-29T04:17:40.174Z,79.22
2023-04-29T04:22:43.725Z,79.14
2023-04-29T04:28:07.684Z,78.68
2023-04-29T04:33:27.850Z,75.71
2023-04-29T04:38:33.277Z,73.26
2023-04-29T04:43:41.727Z,71.69
2023-04-29T04:48:52.518Z,72.00
2023-04-29T04:53:57.138Z,72.63
2023-04-29T04:59:02.959Z,72.47
2023-04-29T05:04:06.462Z,70.61
2023-04-29T05:09:10.147Z,70.86
2023-04-29T05:14:13.657Z,70.40
2023-04-29T05:19:17.326Z,70.67
2023-04-29T05:24:22.261Z,68.61
2023-04-29T05:29:27.536Z,64.77
2023-04-29T05:34:35.328Z,63.51
2023-04-29T05:39:39.745Z,61.36
2023-04-29T05:44:49.262Z,60.86
2023-04-29T05:49:53.133Z,57.10
2023-04-29T05:54:57.030Z,53.96
2023-04-29T06:00:01.597Z,53.95
2023-04-29T06:05:06.005Z,54.51
2023-04-29T06:10:22.154Z,55.02
2023-04-29T06:15:29.153Z,51.33
2023-04-29T06:20:33.673Z,45.10
2023-04-29T06:25:37.468Z,39.94
2023-04-29T06:30:43.674Z,36.28
2023-04-29T06:35:50.204Z,34.42
2023-04-29T06:41:19.360Z,34.08
2023-04-29T06:46:41.353Z,34.56
2023-04-29T06:51:51.857Z,31.72
2023-04-29T06:56:55.800Z,31.47
2023-04-29T07:01:59.099Z,30.45
2023-04-29T07:07:03.451Z,32.75
2023-04-29T07:12:07.108Z,30.74
2023-04-29T07:17:12.059Z,32.83
2023-04-29T07:22:18.842Z,32.25
2023-04-29T07:27:22.188Z,32.57
2023-04-29T07:32:25.950Z,32.23
2023-04-29T07:37:30.343Z,31.34
2023-04-29T07:42:33.467Z,29.76
2023-04-29T07:47:37.874Z,30.06
2023-04-29T07:52:42.201Z,31.63
2023-04-29T07:57:46.363Z,31.50
2023-04-29T08:02:57.462Z,31.81
2023-04-29T08:08:01.882Z,32.04
2023-04-29T08:13:06.268Z,33.17
2023-04-29T08:18:09.477Z,30.14
2023-04-29T08:23:13.109Z,32.37
2023-04-29T08:28:16.335Z,32.33
2023-04-29T08:33:19.957Z,32.49
2023-04-29T08:38:24.406Z,32.63
2023-04-29T08:43:29.227Z,32.85
2023-04-29T08:48:34.051Z,32.61
2023-04-29T08:53:38.344Z,32.29
2023-04-29T08:58:42.643Z,32.11
2023-04-29T09:03:55.758Z,32.21
2023-04-29T09:09:00.694Z,29.91
2023-04-29T09:14:08.457Z,31.15
2023-04-29T09:19:12.024Z,28.85
2023-04-29T09:24:27.765Z,31.31
2023-04-29T09:29:33.218Z,28.22
2023-04-29T09:34:39.992Z,30.63
2023-04-29T09:39:43.540Z,28.97
2023-04-29T09:44:47.094Z,28.77
2023-04-29T09:49:50.660Z,30.11
2023-04-29T09:55:07.078Z,29.26
2023-04-29T10:00:12.302Z,30.08
2023-04-29T10:05:17.393Z,30.05
2023-04-29T10:10:24.784Z,28.65
2023-04-29T10:15:43.181Z,30.29
2023-04-29T10:20:48.645Z,27.88
2023-04-29T10:25:53.910Z,26.22
2023-04-29T10:31:01.407Z,28.40
2023-04-29T10:36:05.516Z,28.93
2023-04-29T10:41:17.756Z,27.61
2023-04-29T10:46:29.140Z,26.62
2023-04-29T10:51:42.473Z,28.59
2023-04-29T10:56:52.184Z,27.39
2023-04-29T11:01:56.108Z,29.41
2023-04-29T11:06:59.803Z,27.33
2023-04-29T11:12:05.865Z,30.88
2023-04-29T11:17:17.091Z,30.69
2023-04-29T11:22:27.341Z,30.35
2023-04-29T11:27:35.274Z,30.93
2023-04-29T11:32:41.292Z,30.10
2023-04-29T11:37:46.512Z,29.11
2023-04-29T11:42:51.465Z,30.93
2023-04-29T11:47:56.042Z,32.37
2023-04-29T11:52:59.948Z,28.96
2023-04-29T11:58:05.801Z,31.33
2023-04-29T12:03:22.648Z,30.83
2023-04-29T12:08:29.056Z,30.04
2023-04-29T12:13:35.843Z,32.43
2023-04-29T12:18:40.326Z,28.92
2023-04-29T12:23:43.413Z,28.84
2023-04-29T12:28:49.323Z,29.08
2023-04-29T12:33:55.712Z,28.83
2023-04-29T12:39:00.528Z,29.00
2023-04-29T12:44:06.171Z,28.26
2023-04-29T12:49:09.310Z,28.74
2023-04-29T12:54:12.948Z,27.30
2023-04-29T12:59:17.491Z,27.56
2023-04-29T13:04:20.805Z,29.06
2023-04-29T13:09:24.849Z,30.30
2023-04-29T13:14:29.265Z,32.01
2023-04-29T13:19:48.134Z,32.95
2023-04-29T13:24:54.831Z,33.02
2023-04-29T13:29:58.632Z,34.10
2023-04-29T13:35:02.357Z,32.37
2023-04-29T13:40:08.265Z,30.40
2023-04-29T13:45:15.547Z,28.87
2023-04-29T13:51:03.969Z,28.66
2023-04-29T14:01:05.947Z,29.81
2023-04-29T14:06:16.846Z,32.24
2023-04-29T14:11:21.461Z,32.32
2023-04-29T14:16:24.408Z,33.44
2023-04-29T14:21:28.745Z,34.03
2023-04-29T14:26:32.386Z,31.80
2023-04-29T14:31:38.534Z,29.70
2023-04-29T14:36:43.833Z,30.30
2023-04-29T14:41:48.989Z,30.81
2023-04-29T14:46:52.651Z,30.14
2023-04-29T14:51:56.080Z,29.02
2023-04-29T14:57:00.269Z,29.67
2023-04-29T15:02:04.533Z,29.42
2023-04-29T15:07:08.192Z,28.16
2023-04-29T15:12:12.060Z,28.88
2023-04-29T15:17:15.846Z,29.15
2023-04-29T15:22:19.360Z,29.33
2023-04-29T15:27:22.975Z,29.75
2023-04-29T15:32:31.708Z,30.25
2023-04-29T15:37:35.816Z,29.52
2023-04-29T15:42:39.779Z,29.89
2023-04-29T15:47:43.469Z,31.65
2023-04-29T15:52:47.137Z,30.28
2023-04-29T15:57:51.756Z,30.63
2023-04-29T16:02:56.146Z,32.38
2023-04-29T16:07:59.673Z,32.18
2023-04-29T16:13:04.653Z,32.92
2023-04-29T16:18:09.201Z,33.88
2023-04-29T16:23:12.494Z,35.93
2023-04-29T16:28:16.508Z,35.18
2023-04-29T16:33:20.392Z,35.20
2023-04-29T16:38:24.428Z,36.08
2023-04-29T16:43:27.892Z,36.05
2023-04-29T16:48:31.726Z,36.51
2023-04-29T16:53:35.117Z,36.76
2023-04-29T16:58:39.982Z,37.62
2023-04-29T17:03:44.501Z,39.85
2023-04-29T17:08:50.784Z,40.59
2023-04-29T17:13:56.004Z,41.24
2023-04-29T17:19:00.860Z,41.95
2023-04-29T17:24:04.924Z,42.28
2023-04-29T17:29:09.218Z,43.33
2023-04-29T17:34:33.666Z,43.76
2023-04-29T17:39:37.063Z,44.16
2023-04-29T17:44:40.728Z,44.95
2023-04-29T17:49:47.107Z,45.43
2023-04-29T17:54:50.319Z,46.10
2023-04-29T17:59:53.653Z,47.69
2023-04-29T18:04:56.905Z,47.71
2023-04-29T18:09:59.900Z,48.19
2023-04-29T18:15:06.390Z,48.56
2023-04-29T18:20:10.615Z,48.57
2023-04-29T18:25:16.732Z,50.09
2023-04-29T18:30:20.228Z,51.02
2023-04-29T18:35:23.988Z,50.66
2023-04-29T18:40:27.464Z,50.03
2023-04-29T18:45:31.399Z,49.88
2023-04-29T18:50:35.013Z,49.25
2023-04-29T18:55:38.142Z,49.42
2023-04-29T19:00:42.262Z,49.37
2023-04-29T19:05:46.188Z,48.43
2023-04-29T19:10:50.383Z,49.43
2023-04-29T19:15:55.633Z,49.91
2023-04-29T19:20:59.361Z,50.39
2023-04-29T19:26:03.021Z,50.20
2023-04-29T19:31:06.544Z,50.46
2023-04-29T19:36:11.769Z,51.58
2023-04-29T19:41:16.050Z,51.24
2023-04-29T19:46:19.897Z,51.48
2023-04-29T19:51:23.917Z,51.82
2023-04-29T19:56:28.350Z,51.67
2023-04-29T20:01:32.174Z,52.25
2023-04-29T20:06:37.809Z,52.50
2023-04-29T20:11:41.619Z,53.25
2023-04-29T20:16:45.666Z,53.50
2023-04-29T20:21:49.583Z,54.22
2023-04-29T20:26:53.574Z,53.43
2023-04-29T20:31:57.670Z,54.08
2023-04-29T20:37:01.698Z,54.90
2023-04-29T20:42:07.186Z,53.59
2023-04-29T20:47:11.184Z,54.91
2023-04-29T20:52:14.721Z,55.41
2023-04-29T20:57:18.338Z,55.27
2023-04-29T21:02:21.833Z,55.88
2023-04-29T21:07:26.001Z,56.55
2023-04-29T21:12:30.350Z,57.53
2023-04-29T21:17:34.458Z,58.06
2023-04-29T21:22:37.735Z,58.61
2023-04-29T21:27:41.686Z,59.84
2023-04-29T21:32:48.515Z,59.72
2023-04-29T21:37:52.349Z,58.17
2023-04-29T21:42:58.192Z,57.46
2023-04-29T21:48:16.097Z,58.74
2023-04-29T21:53:20.380Z,58.07
2023-04-29T21:58:24.401Z,56.74
2023-04-29T22:03:28.759Z,57.30
2023-04-29T22:08:32.572Z,55.35
2023-04-29T22:13:36.367Z,56.54
2023-04-29T22:18:39.734Z,55.80
2023-04-29T22:23:43.603Z,55.96
2023-04-29T22:28:47.076Z,55.93
2023-04-29T22:33:51.557Z,55.92
2023-04-29T22:38:55.272Z,56.36
2023-04-29T22:43:59.021Z,58.12
2023-04-29T22:49:03.312Z,57.60
2023-04-29T22:54:08.348Z,58.70
2023-04-29T22:59:12.850Z,59.63
2023-04-29T23:04:16.477Z,59.70
2023-04-29T23:09:20.476Z,59.36
2023-04-29T23:14:24.024Z,59.45
2023-04-29T23:19:27.479Z,60.00
2023-04-29T23:24:31.141Z,60.84
2023-04-29T23:29:34.815Z,60.19
2023-04-29T23:34:38.640Z,60.20
2023-04-29T23:39:42.213Z,60.69
2023-04-29T23:44:46.789Z,60.66
2023-04-29T23:49:50.675Z,61.24
2023-04-29T23:54:53.775Z,61.58
2023-04-29T23:59:57.320Z,61.26
